Aviation Digital Data Service (ADDS)

Output produced by METARs form (0118 UTC 16 January 2019)
found at http://www.aviationweather.gov/metar/data/
 
TAF TQPF 152300Z 1600/1624 09008KT 9999 SCT019 
     PROB30 
     TEMPO 1609/1612 SHRA